ADDS METAR Data INFO
IDs: Format: Raw Decoded Include TAF

Data at: 2031 UTC 20 Jul 2018

KTMA 202015Z AUTO 00000KT 10SM SCT075 SCT085 29/23 A2993 RMK AO2 LTG DSNT SE T02870230
KTMA 201955Z AUTO 28003KT 10SM SCT030 SCT046 BKN065 27/24 A2993 RMK AO2 T02720241
KTMA 201935Z AUTO 35007G15KT 10SM VCTS SCT030 BKN050 BKN060 28/23 A2993 RMK AO2 LTG DSNT E T02820225
KTMA 201915Z AUTO 27007KT 10SM SCT050 SCT075 SCT085 31/22 A2993 RMK AO2 LTG DSNT E T03050223
KTMA 201855Z AUTO 29008KT 10SM BKN034 BKN050 OVC080 30/23 A2993 RMK AO2 LTG DSNT E AND SE T02970225
KTMA 201835Z AUTO 29005KT 10SM SCT034 SCT039 BKN050 30/22 A2993 RMK AO2 LTG DSNT NE AND SE T03010219
KTMA 201815Z AUTO 28005KT 10SM SCT031 SCT042 30/22 A2994 RMK AO2 LTG DSNT SE T03040223
KTMA 201755Z AUTO 28005KT 10SM SCT031 SCT039 30/22 A2994 RMK AO2 LTG DSNT SE T03010219
KTMA 201735Z AUTO 31003KT 10SM SCT031 SCT039 SCT045 30/22 A2995 RMK AO2 LTG DSNT S T02960220
KTMA 201715Z AUTO 34006KT 10SM SCT027 BKN035 BKN041 29/22 A2995 RMK AO2 LTG DSNT SE AND SW T02900221
KTMA 201655Z AUTO 00000KT 10SM SCT025 BKN033 28/22 A2996 RMK AO2 LTG DSNT SE T02840221
KTMA 201635Z AUTO 34005KT 10SM SCT023 SCT031 28/23 A2996 RMK AO2 LTG DSNT SE T02820230
KTMA 201615Z AUTO 35004KT 10SM SCT026 SCT041 SCT050 28/22 A2997 RMK AO2 T02820218
KTMA 201555Z AUTO 01003KT 10SM SCT020 BKN025 BKN030 28/23 A2998 RMK AO2 LTG DSNT S T02790225
KTMA 201535Z AUTO 32005KT 10SM OVC023 28/23 A2999 RMK AO2 LTG DSNT S T02770231
KTMA 201515Z AUTO 35003KT 10SM SCT017 BKN024 BKN044 27/25 A2998 RMK AO2 LTG DSNT S T02680249
KTMA 201455Z AUTO 00000KT 10SM SCT017 BKN022 BKN044 27/25 A2999 RMK AO2 T02650254
KTMA 201435Z AUTO 36004KT 10SM BKN015 OVC019 27/26 A2998 RMK AO2 LTG DSNT S T02650262
KTMA 201415Z AUTO 32004KT 10SM BKN011 OVC016 26/26 A2998 RMK AO2 T02570257
KTMA 201355Z AUTO 00000KT 10SM OVC009 25/25 A2998 RMK AO2 T02510251
KTMA 201335Z AUTO 30004KT 10SM OVC007 A2997 RMK AO2
KTMA 201315Z AUTO 00000KT 10SM BKN007 A2996 RMK AO2
KTMA 201255Z AUTO 00000KT 10SM OVC005 A2997 RMK AO2
KTMA 201235Z AUTO 00000KT 7SM OVC003 A2996 RMK AO2
KTMA 201215Z AUTO 00000KT 10SM OVC003 A2995 RMK AO2
KTMA 201155Z AUTO 00000KT 4SM HZ OVC003 A2995 RMK AO2
KTMA 201135Z AUTO 00000KT 1 3/4SM BR OVC003 A2995 RMK AO2
KTMA 201115Z AUTO 00000KT 5SM HZ OVC003 A2994 RMK AO2
KTMA 201055Z AUTO 00000KT 7SM OVC003 A2994 RMK AO2
KTMA 201035Z AUTO 00000KT 5SM HZ OVC003 A2994 RMK AO2
KTMA 201015Z AUTO 00000KT 5SM HZ OVC003 A2993 RMK AO2
KTMA 200955Z AUTO 00000KT 5SM HZ OVC003 A2993 RMK AO2
KTMA 200935Z AUTO 00000KT 7SM OVC003 A2992 RMK AO2
KTMA 200915Z AUTO 00000KT 7SM BKN003 OVC015 A2991 RMK AO2
KTMA 200855Z AUTO 00000KT 10SM OVC003 A2992 RMK AO2
KTMA 200835Z AUTO 00000KT 10SM BKN003 BKN010 A2992 RMK AO2
KTMA 200815Z AUTO 00000KT 10SM BKN003 A2992 RMK AO2
KTMA 200755Z AUTO 00000KT 10SM SCT003 BKN014 A2991 RMK AO2 LTG DSNT SW
KTMA 200735Z AUTO 00000KT 10SM SCT003 SCT009 OVC014 A2992 RMK AO2
KTMA 200715Z AUTO 02003KT 10SM OVC007 A2992 RMK AO2
KTMA 200655Z AUTO 02003KT 10SM BKN005 BKN015 A2992 RMK AO2
KTMA 200635Z AUTO 00000KT 10SM SCT005 SCT009 BKN015 A2992 RMK AO2
KTMA 200615Z AUTO 00000KT 10SM SCT007 OVC015 A2993 RMK AO2
KTMA 200555Z AUTO 00000KT 7SM BKN004 OVC015 A2993 RMK AO2
KTMA 200535Z AUTO 00000KT 7SM BKN004 OVC015 A2994 RMK AO2
KTMA 200515Z AUTO 00000KT 7SM OVC004 A2995 RMK AO2
KTMA 200455Z AUTO 22003KT 7SM OVC004 A2995 RMK AO2
KTMA 200435Z AUTO 00000KT 7SM OVC002 A2996 RMK AO2
KTMA 200415Z AUTO 21003KT 5SM HZ OVC002 A2996 RMK AO2
KTMA 200355Z AUTO 18003KT 7SM BKN004 OVC015 A2995 RMK AO2 LTG DSNT S
KTMA 200335Z AUTO 00000KT 10SM SCT004 SCT009 BKN015 A2996 RMK AO2 LTG DSNT E
KTMA 200315Z AUTO 00000KT 10SM SCT004 BKN007 A2996 RMK AO2
KTMA 200255Z AUTO 23003KT 7SM OVC004 RMK AO2
KTMA 200235Z AUTO 00000KT 10SM SCT004 A2995 RMK AO2
KTMA 200215Z AUTO 00000KT 10SM CLR A2995 RMK AO2
KTMA 200155Z AUTO 00000KT 10SM SCT110 A2994 RMK AO2
KTMA 200135Z AUTO 00000KT 10SM SCT075 SCT100 A2993 RMK AO2
KTMA 200115Z AUTO 00000KT 10SM SCT050 BKN080 OVC095 A2993 RMK AO2
KTMA 200055Z AUTO 00000KT 10SM BKN050 OVC095 A2993 RMK AO2
KTMA 200035Z AUTO 00000KT 10SM -DZ SCT036 BKN048 OVC055 A2994 RMK AO2
KTMA 200015Z AUTO 00000KT 10SM -RA SCT030 BKN042 OVC048 A2994 RMK AO2 LTG DSNT S
KTMA 192355Z AUTO 00000KT 10SM -RA SCT030 BKN042 BKN055 A2994 RMK AO2 LTG DSNT S
KTMA 192335Z AUTO 00000KT 10SM -RA SCT120 A2993 RMK AO2 LTG DSNT E AND S
KTMA 192315Z AUTO 25003KT 10SM CLR A2993 RMK AO2 LTG DSNT S
KTMA 192255Z AUTO 00000KT 10SM -DZ SCT050 SCT070 BKN110 A2991 RMK AO2 LTG DSNT NE S AND SW
KTMA 192235Z AUTO 00000KT 10SM -RA SCT085 BKN110 A2990 RMK AO2 LTG DSNT E
KTMA 192215Z AUTO 00000KT 10SM CLR A2992 RMK AO2
KTMA 192155Z AUTO 26003KT 10SM VCTS SCT005 A2991 RMK AO2 LTG DSNT E
KTMA 192135Z AUTO 27003KT 10SM VCTS BKN005 BKN032 BKN047 A2990 RMK AO2 LTG DSNT N E AND W
KTMA 192115Z AUTO 22004KT 10SM -RA SCT005 BKN049 OVC120 A2990 RMK AO2 LTG DSNT N AND W
KTMA 192055Z AUTO 16006G14KT 10SM -RA SCT080 SCT090 BKN120 24/24 A2991 RMK AO2 LTG DSNT ALQS T02400240
KTMA 192035Z AUTO 17012KT 10SM TS SCT060 SCT080 BKN090 25/24 A2993 RMK AO2 LTG DSNT ALQS T02530237
KTMA 192015Z AUTO 16012KT 10SM VCTS SCT060 SCT070 BKN090 26/24 A2993 RMK AO2 LTG DSNT ALQS T02550237
KTMA 191955Z AUTO 09006KT 10SM VCTS BKN060 BKN070 OVC100 26/26 A2991 RMK AO2 LTG DSNT E THRU SW T02600260
KTMA 191935Z AUTO 03007KT 10SM VCTS SCT021 BKN065 OVC085 26/25 A2992 RMK AO2 LTG DSNT ALQS T02600253
KTMA 191915Z AUTO 34009KT 10SM -VCTSRA SCT035 BKN065 OVC110 25/25 A2991 RMK AO2 LTG DSNT ALQS T02540254
KTMA 191855Z AUTO 35008KT 10SM +TSRA SCT023 BKN032 OVC055 27/25 A2991 RMK AO2 LTG DSNT ALQS T02670252
KTMA 191835Z AUTO 35006KT 10SM VCTS SCT023 BKN050 OVC060 29/25 A2991 RMK AO2 LTG DSNT ALQS T02940247
KTMA 191815Z AUTO 00000KT 10SM SCT026 SCT033 BKN048 30/23 A2992 RMK AO2 LTG DSNT E THRU S T03000234
KTMA 191755Z AUTO 29003KT 10SM BKN024 BKN033 BKN045 30/24 A2993 RMK AO2 LTG DSNT S T02980240
KTMA 191735Z AUTO 18003KT 10SM VCTS BKN022 BKN028 BKN042 30/24 A2993 RMK AO2 LTG DSNT S AND SW T02970240
KTMA 191715Z AUTO 00000KT 10SM BKN020 BKN028 OVC060 30/26 A2994 RMK AO2 LTG DSNT E THRU S T02950259
KTMA 191655Z AUTO 25004KT 10SM SCT020 SCT055 30/27 A2995 RMK AO2 T02970266
KTMA 191635Z AUTO 00000KT 10SM SCT020 29/26 A2996 RMK AO2 LTG DSNT NE T02870264
KTMA 191615Z AUTO 23003KT 10SM BKN018 29/27 A2996 RMK AO2 T02890268
KTMA 191555Z AUTO 00000KT 10SM BKN016 28/28 A2996 RMK AO2 T02820275
KTMA 191535Z AUTO 11003KT 10SM OVC012 28/28 A2996 RMK AO2 T02770276
KTMA 191515Z AUTO 18003KT 10SM OVC010 27/27 A2996 RMK AO2 T02690269
KTMA 191455Z AUTO 00000KT 10SM OVC008 27/27 A2996 RMK AO2 T02650265
KTMA 191435Z AUTO 00000KT 10SM OVC006 A2996 RMK AO2
KTMA 191415Z AUTO 00000KT 10SM OVC006 A2997 RMK AO2
KTMA 191355Z AUTO 00000KT 10SM OVC004 A2996 RMK AO2 LTG DSNT E
KTMA 191335Z AUTO 00000KT 5SM HZ OVC002 A2996 RMK AO2
KTMA 191315Z AUTO 00000KT 5SM HZ OVC002 A2996 RMK AO2
KTMA 191255Z AUTO 00000KT 5SM HZ OVC002 A2996 RMK AO2
KTMA 191235Z AUTO 00000KT 5SM HZ OVC002 A2995 RMK AO2
KTMA 191215Z AUTO 00000KT 4SM HZ OVC002 A2995 RMK AO2 LTG DSNT S AND SW
KTMA 191155Z AUTO 00000KT 5SM HZ OVC002 A2995 RMK AO2 LTG DSNT S
KTMA 191135Z AUTO 00000KT 4SM HZ OVC002 A2995 RMK AO2
KTMA 191115Z AUTO 00000KT 4SM HZ OVC002 A2995 RMK AO2 LTG DSNT S
KTMA 191055Z AUTO 00000KT 5SM HZ OVC002 A2994 RMK AO2 LTG DSNT S
KTMA 191035Z AUTO 19003KT 5SM HZ OVC002 A2994 RMK AO2
KTMA 191015Z AUTO 18003KT 7SM OVC002 A2993 RMK AO2
KTMA 190955Z AUTO 21003KT 7SM OVC002 A2992 RMK AO2
KTMA 190935Z AUTO 19003KT 7SM OVC004 A2992 RMK AO2
KTMA 190915Z AUTO 20004KT 10SM OVC004 A2991 RMK AO2
KTMA 190855Z AUTO 20003KT 10SM OVC004 A2991 RMK AO2
KTMA 190835Z AUTO 20003KT 10SM BKN004 A2991 RMK AO2